KCNM/CNM METAR and TAF weather

Enter ICAO airport designator
Station Type Date Time Source
KCNM METAR 2020/01/19 16:53 UTC NOAA

KCNM 191653Z AUTO 15011KT 10SM CLR 04/M05 A3050 RMK AO2 SLP324 T00441050


Station Type Date Time Source
KCNM Decoded METAR 2020/01/19 16:53 UTC NOAA

CARLSBAD CAVERN CITY, NM, United States (KCNM) 32-20N 104-16W 985M
Jan 19, 2020 - 11:53 AM EST / 2020.01.19 1653 UTC
Wind: from the SSE (150 degrees) at 13 MPH (11 KT):0
Visibility: 10 mile(s):0
Sky conditions: clear
Temperature: 39.9 F (4.4 C)
Dew Point: 23.0 F (-5.0 C)
Relative Humidity: 50%
Pressure (altimeter): 30.5 in. Hg (1032 hPa)
ob: KCNM 191653Z AUTO 15011KT 10SM CLR 04/M05 A3050 RMK AO2 SLP324 T00441050
cycle: 17

Station Type Date Time Source
KCNM TAF 2020/01/19 18:22 UTC NOAA

TAF KCNM 191720Z 1918/2018 15011KT P6SM SKC
FM200200 VRB06KT P6SM BKN080

Example: see airport list